createdAt,value
2023-11-30T00:01:09.828Z,100.00
2023-11-30T00:03:36.892Z,100.00
2023-11-30T00:06:03.781Z,100.00
2023-11-30T00:08:30.652Z,100.00
2023-11-30T00:10:57.452Z,100.00
2023-11-30T00:13:24.221Z,100.00
2023-11-30T00:15:51.004Z,100.00
2023-11-30T00:18:17.853Z,100.00
2023-11-30T00:20:44.648Z,100.00
2023-11-30T00:23:11.469Z,100.00
2023-11-30T00:25:38.271Z,100.00
2023-11-30T00:28:05.258Z,100.00
2023-11-30T00:30:32.171Z,100.00
2023-11-30T00:32:59.069Z,100.00
2023-11-30T00:35:25.905Z,100.00
2023-11-30T00:37:52.730Z,100.00
2023-11-30T00:40:19.486Z,100.00
2023-11-30T00:42:47.683Z,100.00
2023-11-30T00:45:14.874Z,100.00
2023-11-30T00:47:42.860Z,100.00
2023-11-30T00:50:10.005Z,100.00
2023-11-30T00:52:36.774Z,100.00
2023-11-30T00:55:04.463Z,100.00
2023-11-30T00:57:31.333Z,100.00
2023-11-30T01:00:01.536Z,100.00
2023-11-30T01:02:28.501Z,100.00
2023-11-30T01:04:55.321Z,100.00
2023-11-30T01:07:22.058Z,100.00
2023-11-30T01:09:48.841Z,100.00
2023-11-30T01:12:15.613Z,100.00
2023-11-30T01:14:43.249Z,100.00
2023-11-30T01:17:11.049Z,100.00
2023-11-30T01:19:37.881Z,100.00
2023-11-30T01:22:07.319Z,100.00
2023-11-30T01:24:34.216Z,100.00
2023-11-30T01:27:01.047Z,100.00
2023-11-30T01:29:27.904Z,100.00
2023-11-30T01:31:54.751Z,100.00
2023-11-30T01:34:21.557Z,100.00
2023-11-30T01:36:48.384Z,100.00
2023-11-30T01:39:16.574Z,100.00
2023-11-30T01:41:43.814Z,100.00
2023-11-30T01:44:12.154Z,100.00
2023-11-30T01:46:39.093Z,100.00
2023-11-30T01:49:07.969Z,100.00
2023-11-30T01:51:36.474Z,100.00
2023-11-30T01:54:04.618Z,100.00
2023-11-30T01:56:31.729Z,100.00
2023-11-30T01:58:58.530Z,100.00
2023-11-30T02:01:27.617Z,100.00
2023-11-30T02:03:55.258Z,100.00
2023-11-30T02:06:22.121Z,100.00
2023-11-30T02:08:49.054Z,100.00
2023-11-30T02:11:15.868Z,100.00
2023-11-30T02:13:42.770Z,100.00
2023-11-30T02:16:10.149Z,100.00
2023-11-30T02:18:36.966Z,100.00
2023-11-30T02:21:03.963Z,100.00
2023-11-30T02:23:30.796Z,100.00
2023-11-30T02:25:57.640Z,100.00
2023-11-30T02:28:25.850Z,100.00
2023-11-30T02:30:52.702Z,100.00
2023-11-30T02:33:19.690Z,100.00
2023-11-30T02:35:46.613Z,100.00
2023-11-30T02:38:13.460Z,100.00
2023-11-30T02:40:40.196Z,100.00
2023-11-30T02:43:06.993Z,100.00
2023-11-30T02:45:33.844Z,100.00
2023-11-30T02:48:01.886Z,100.00
2023-11-30T02:50:28.746Z,100.00
2023-11-30T02:52:55.600Z,100.00
2023-11-30T02:55:22.992Z,100.00
2023-11-30T02:57:50.514Z,100.00
2023-11-30T03:00:17.722Z,100.00
2023-11-30T03:02:44.572Z,100.00
2023-11-30T03:05:11.495Z,100.00
2023-11-30T03:07:38.251Z,100.00
2023-11-30T03:10:05.316Z,100.00
2023-11-30T03:12:32.095Z,100.00
2023-11-30T03:14:58.946Z,100.00
2023-11-30T03:17:25.726Z,100.00
2023-11-30T03:19:52.592Z,100.00
2023-11-30T03:22:19.342Z,100.00
2023-11-30T03:24:46.097Z,100.00
2023-11-30T03:27:13.343Z,100.00
2023-11-30T03:29:41.640Z,100.00
2023-11-30T03:32:08.631Z,100.00
2023-11-30T03:34:35.965Z,100.00
2023-11-30T03:37:04.475Z,100.00
2023-11-30T03:39:31.426Z,100.00
2023-11-30T03:41:58.325Z,100.00
2023-11-30T03:44:25.155Z,100.00
2023-11-30T03:46:51.925Z,100.00
2023-11-30T03:49:18.729Z,100.00
2023-11-30T03:51:45.496Z,100.00
2023-11-30T03:54:12.326Z,100.00
2023-11-30T03:56:39.048Z,100.00
2023-11-30T03:59:05.753Z,100.00
2023-11-30T04:01:32.609Z,100.00
2023-11-30T04:03:59.435Z,100.00
2023-11-30T04:06:26.236Z,100.00
2023-11-30T04:08:53.757Z,100.00
2023-11-30T04:11:20.795Z,100.00
2023-11-30T04:13:48.189Z,100.00
2023-11-30T04:16:16.468Z,100.00
2023-11-30T04:18:43.826Z,100.00
2023-11-30T04:21:10.985Z,100.00
2023-11-30T04:23:37.792Z,100.00
2023-11-30T04:26:04.625Z,100.00
2023-11-30T04:28:31.364Z,100.00
2023-11-30T04:30:58.315Z,100.00
2023-11-30T04:33:25.201Z,100.00
2023-11-30T04:35:52.212Z,100.00
2023-11-30T04:38:19.762Z,100.00
2023-11-30T04:40:46.561Z,100.00
2023-11-30T04:43:13.517Z,100.00
2023-11-30T04:45:40.406Z,100.00
2023-11-30T04:48:07.415Z,99.91
2023-11-30T04:50:34.183Z,100.00
2023-11-30T04:53:02.079Z,100.00
2023-11-30T04:55:28.872Z,100.00
2023-11-30T04:57:55.660Z,100.00
2023-11-30T05:00:22.976Z,100.00
2023-11-30T05:02:54.241Z,100.00
2023-11-30T05:05:21.218Z,100.00
2023-11-30T05:07:48.356Z,100.00
2023-11-30T05:10:15.306Z,100.00
2023-11-30T05:12:42.066Z,99.93
2023-11-30T05:15:09.098Z,99.65
2023-11-30T05:17:35.862Z,99.46
2023-11-30T05:20:04.754Z,99.38
2023-11-30T05:22:32.397Z,99.12
2023-11-30T05:24:59.125Z,99.42
2023-11-30T05:27:25.961Z,99.16
2023-11-30T05:29:52.863Z,99.55
2023-11-30T05:32:19.789Z,99.81
2023-11-30T05:34:46.627Z,99.56
2023-11-30T05:37:13.348Z,99.46
2023-11-30T05:39:40.393Z,100.00
2023-11-30T05:42:07.962Z,99.32
2023-11-30T05:44:34.813Z,98.97
2023-11-30T05:47:01.606Z,98.66
2023-11-30T05:49:28.414Z,98.31
2023-11-30T05:51:55.170Z,98.59
2023-11-30T05:54:22.739Z,98.83
2023-11-30T05:56:49.859Z,98.91
2023-11-30T05:59:16.621Z,98.20
2023-11-30T06:01:43.859Z,97.75
2023-11-30T06:04:11.020Z,97.85
2023-11-30T06:06:37.914Z,97.91
2023-11-30T06:09:05.384Z,97.97
2023-11-30T06:11:32.209Z,97.90
2023-11-30T06:14:01.576Z,97.62
2023-11-30T06:16:28.658Z,97.22
2023-11-30T06:18:55.382Z,97.38
2023-11-30T06:21:22.181Z,97.36
2023-11-30T06:23:48.923Z,97.26
2023-11-30T06:26:15.674Z,97.46
2023-11-30T06:28:42.473Z,97.25
2023-11-30T06:31:09.432Z,97.17
2023-11-30T06:33:36.292Z,97.25
2023-11-30T06:36:05.270Z,97.58
2023-11-30T06:38:32.332Z,97.42
2023-11-30T06:40:59.368Z,97.69
2023-11-30T06:43:27.216Z,97.29
2023-11-30T06:45:54.025Z,97.33
2023-11-30T06:48:22.456Z,97.73
2023-11-30T06:50:49.276Z,97.56
2023-11-30T06:53:16.086Z,97.59
2023-11-30T06:55:43.032Z,97.91
2023-11-30T06:58:09.795Z,97.75
2023-11-30T07:00:36.649Z,97.67
2023-11-30T07:03:03.554Z,97.86
2023-11-30T07:05:30.356Z,97.80
2023-11-30T07:07:57.143Z,97.83
2023-11-30T07:10:24.407Z,97.90
2023-11-30T07:12:51.223Z,97.38
2023-11-30T07:15:18.074Z,97.50
2023-11-30T07:17:44.877Z,97.29
2023-11-30T07:20:12.665Z,97.70
2023-11-30T07:22:39.389Z,98.08
2023-11-30T07:25:06.524Z,98.16
2023-11-30T07:27:33.453Z,97.89
2023-11-30T07:30:00.362Z,98.22
2023-11-30T07:32:27.330Z,98.29
2023-11-30T07:34:54.232Z,97.87
2023-11-30T07:37:22.530Z,98.06
2023-11-30T07:39:49.420Z,98.18
2023-11-30T07:42:28.923Z,98.40
2023-11-30T07:45:00.380Z,98.01
2023-11-30T07:47:27.468Z,98.33
2023-11-30T07:49:54.289Z,98.40
2023-11-30T07:52:21.462Z,98.68
2023-11-30T07:54:48.941Z,98.81
2023-11-30T07:57:17.382Z,99.01
2023-11-30T07:59:45.243Z,99.16
2023-11-30T08:02:12.018Z,99.67
2023-11-30T08:04:38.948Z,99.77
2023-11-30T08:07:06.088Z,99.69
2023-11-30T08:09:34.853Z,100.00
2023-11-30T08:12:01.814Z,100.00
2023-11-30T08:14:29.252Z,99.64
2023-11-30T08:16:56.277Z,99.56
2023-11-30T08:19:23.072Z,99.73
2023-11-30T08:21:50.215Z,99.83
2023-11-30T08:24:17.097Z,99.71
2023-11-30T08:26:43.926Z,99.71
2023-11-30T08:29:10.724Z,99.76
2023-11-30T08:31:37.833Z,99.89
2023-11-30T08:34:04.825Z,99.71
2023-11-30T08:36:31.710Z,99.56
2023-11-30T08:38:58.528Z,99.52
2023-11-30T08:41:25.295Z,100.00
2023-11-30T08:43:52.057Z,99.94
2023-11-30T08:46:19.269Z,99.96
2023-11-30T08:48:46.507Z,99.98
2023-11-30T08:51:14.076Z,100.00
2023-11-30T08:53:41.387Z,100.00
2023-11-30T08:56:08.775Z,100.00
2023-11-30T08:58:35.645Z,100.00
2023-11-30T09:01:02.596Z,100.00
2023-11-30T09:03:29.317Z,100.00
2023-11-30T09:05:56.125Z,100.00
2023-11-30T09:08:22.989Z,100.00
2023-11-30T09:10:49.847Z,100.00
2023-11-30T09:13:16.625Z,100.00
2023-11-30T09:15:43.522Z,99.93
2023-11-30T09:18:12.181Z,99.13
2023-11-30T09:20:38.989Z,98.46
2023-11-30T09:23:06.454Z,97.92
2023-11-30T09:25:34.057Z,97.28
2023-11-30T09:28:01.054Z,96.91
2023-11-30T09:30:27.854Z,96.43
2023-11-30T09:32:55.073Z,95.82
2023-11-30T09:35:21.936Z,95.40
2023-11-30T09:37:49.427Z,95.55
2023-11-30T09:40:16.429Z,95.66
2023-11-30T09:42:43.226Z,95.84
2023-11-30T09:45:10.228Z,94.94
2023-11-30T09:47:37.100Z,95.16
2023-11-30T09:50:04.446Z,94.72
2023-11-30T09:52:32.638Z,94.58
2023-11-30T09:55:00.028Z,94.65
2023-11-30T09:57:26.900Z,94.59
2023-11-30T09:59:54.046Z,94.48
2023-11-30T10:02:20.928Z,94.72
2023-11-30T10:04:47.781Z,94.45
2023-11-30T10:07:14.636Z,94.29
2023-11-30T10:09:41.545Z,94.48
2023-11-30T10:12:08.537Z,94.35
2023-11-30T10:14:35.371Z,94.39
2023-11-30T10:17:02.275Z,94.07
2023-11-30T10:19:29.708Z,94.18
2023-11-30T10:21:57.290Z,94.37
2023-11-30T10:24:28.678Z,93.85
2023-11-30T10:26:59.290Z,93.76
2023-11-30T10:29:28.530Z,93.88
2023-11-30T10:31:57.007Z,93.95
2023-11-30T10:34:34.414Z,93.58
2023-11-30T10:37:04.500Z,93.58
2023-11-30T10:39:37.455Z,93.63
2023-11-30T10:42:09.824Z,93.30
2023-11-30T10:44:37.102Z,93.63
2023-11-30T10:47:04.047Z,93.45
2023-11-30T10:49:30.976Z,93.48
2023-11-30T10:52:03.745Z,92.94
2023-11-30T10:54:53.077Z,92.69
2023-11-30T10:57:20.459Z,93.02
2023-11-30T10:59:49.104Z,93.20
2023-11-30T11:02:16.459Z,93.23
2023-11-30T11:04:43.757Z,92.99
2023-11-30T11:07:13.393Z,92.08
2023-11-30T11:10:03.560Z,91.60
2023-11-30T11:12:38.672Z,91.79
2023-11-30T11:15:15.990Z,91.59
2023-11-30T11:17:48.711Z,91.10
2023-11-30T11:20:28.928Z,91.37
2023-11-30T11:22:56.943Z,90.74
2023-11-30T11:25:26.166Z,90.93
2023-11-30T11:27:53.029Z,91.07
2023-11-30T11:30:21.938Z,90.66
2023-11-30T11:32:49.745Z,90.68
2023-11-30T11:35:16.528Z,90.28
2023-11-30T11:37:43.240Z,90.20
2023-11-30T11:40:10.380Z,89.91
2023-11-30T11:42:37.249Z,89.35
2023-11-30T11:45:05.455Z,89.85
2023-11-30T11:47:33.176Z,89.25
2023-11-30T11:50:00.618Z,89.40
2023-11-30T11:52:28.777Z,89.76
2023-11-30T11:55:05.911Z,89.76
2023-11-30T11:57:39.893Z,89.43
2023-11-30T12:00:18.831Z,89.66
2023-11-30T12:02:46.245Z,90.05
2023-11-30T12:05:15.037Z,89.90
2023-11-30T12:07:59.526Z,89.57
2023-11-30T12:10:33.892Z,89.70
2023-11-30T12:13:02.370Z,89.42
2023-11-30T12:15:29.755Z,90.32
2023-11-30T12:17:56.755Z,90.78
2023-11-30T12:20:23.796Z,89.69
2023-11-30T12:22:50.561Z,89.75
2023-11-30T12:25:17.825Z,90.07
2023-11-30T12:27:44.951Z,90.11
2023-11-30T12:30:12.385Z,89.72
2023-11-30T12:32:39.665Z,90.23
2023-11-30T12:35:07.970Z,90.01
2023-11-30T12:37:36.652Z,90.29
2023-11-30T12:40:04.867Z,89.78
2023-11-30T12:42:32.159Z,90.07
2023-11-30T12:44:59.270Z,89.34
2023-11-30T12:47:26.884Z,89.36
2023-11-30T12:49:53.850Z,89.06
2023-11-30T12:52:21.981Z,88.58
2023-11-30T12:54:52.967Z,88.13
2023-11-30T12:57:20.891Z,88.33
2023-11-30T12:59:47.856Z,87.68
2023-11-30T13:02:14.788Z,88.18
2023-11-30T13:04:42.012Z,88.43
2023-11-30T13:07:08.770Z,88.56
2023-11-30T13:09:36.439Z,87.58
2023-11-30T13:12:04.506Z,88.00
2023-11-30T13:14:32.023Z,87.48
2023-11-30T13:16:58.981Z,88.14
2023-11-30T13:19:26.198Z,87.91
2023-11-30T13:21:53.473Z,87.77
2023-11-30T13:24:21.024Z,88.01
2023-11-30T13:26:49.182Z,88.29
2023-11-30T13:29:16.141Z,88.24
2023-11-30T13:31:43.022Z,88.38
2023-11-30T13:34:09.773Z,88.51
2023-11-30T13:36:36.516Z,88.51
2023-11-30T13:39:05.990Z,88.59
2023-11-30T13:41:33.001Z,87.84
2023-11-30T13:43:59.855Z,88.09
2023-11-30T13:46:26.868Z,88.51
2023-11-30T13:48:53.840Z,88.26
2023-11-30T13:51:21.091Z,87.86
2023-11-30T13:53:48.140Z,88.10
2023-11-30T13:56:15.889Z,88.15
2023-11-30T13:58:42.660Z,88.18
2023-11-30T14:01:11.033Z,88.13
2023-11-30T14:03:38.791Z,88.22
2023-11-30T14:06:06.029Z,88.58
2023-11-30T14:08:33.123Z,88.17
2023-11-30T14:11:00.039Z,88.48
2023-11-30T14:13:26.839Z,88.66
2023-11-30T14:15:53.793Z,88.71
2023-11-30T14:18:20.731Z,88.82
2023-11-30T14:20:49.255Z,88.59
2023-11-30T14:23:16.110Z,88.75
2023-11-30T14:25:42.872Z,88.52
2023-11-30T14:28:12.753Z,88.63
2023-11-30T14:30:40.598Z,88.43
2023-11-30T14:33:10.670Z,88.48
2023-11-30T14:35:39.333Z,88.75
2023-11-30T14:38:06.363Z,89.19
2023-11-30T14:40:33.176Z,89.40
2023-11-30T14:43:00.233Z,89.49
2023-11-30T14:45:27.956Z,89.67
2023-11-30T14:47:54.910Z,90.07
2023-11-30T14:50:21.779Z,90.58
2023-11-30T14:52:48.556Z,90.61
2023-11-30T14:55:15.395Z,91.27
2023-11-30T14:57:43.041Z,91.24
2023-11-30T15:00:13.107Z,91.32
2023-11-30T15:02:40.615Z,91.41
2023-11-30T15:05:11.414Z,91.66
2023-11-30T15:07:38.857Z,91.92
2023-11-30T15:10:08.376Z,91.92
2023-11-30T15:12:36.819Z,92.20
2023-11-30T15:15:13.859Z,92.20
2023-11-30T15:17:43.120Z,92.59
2023-11-30T15:20:11.550Z,92.73
2023-11-30T15:22:38.970Z,92.74
2023-11-30T15:25:08.070Z,92.80
2023-11-30T15:27:35.670Z,92.34
2023-11-30T15:30:03.638Z,91.96
2023-11-30T15:32:31.338Z,92.08
2023-11-30T15:34:58.117Z,92.42
2023-11-30T15:37:24.856Z,92.57
2023-11-30T15:39:51.818Z,92.68
2023-11-30T15:42:18.666Z,92.49
2023-11-30T15:44:45.382Z,92.36
2023-11-30T15:47:13.034Z,92.59
2023-11-30T15:49:40.949Z,92.80
2023-11-30T15:52:07.705Z,93.08
2023-11-30T15:54:34.489Z,92.98
2023-11-30T15:57:01.300Z,92.86
2023-11-30T15:59:28.243Z,92.84
2023-11-30T16:01:55.164Z,92.94
2023-11-30T16:04:22.059Z,93.15
2023-11-30T16:06:49.539Z,93.03
2023-11-30T16:09:16.322Z,93.02
2023-11-30T16:11:43.084Z,93.31
2023-11-30T16:14:09.873Z,93.28
2023-11-30T16:16:40.802Z,93.19
2023-11-30T16:19:07.829Z,93.26
2023-11-30T16:21:35.103Z,93.43
2023-11-30T16:24:01.838Z,93.39
2023-11-30T16:26:29.153Z,98.20
2023-11-30T16:28:57.574Z,96.99
2023-11-30T16:31:27.130Z,96.01
2023-11-30T16:33:54.566Z,95.47
2023-11-30T16:36:21.652Z,95.23
2023-11-30T16:38:52.022Z,94.63
2023-11-30T16:41:19.107Z,94.62
2023-11-30T16:43:46.221Z,94.92
2023-11-30T16:46:13.697Z,95.06
2023-11-30T16:48:45.029Z,95.52
2023-11-30T16:51:12.665Z,96.31
2023-11-30T16:53:39.595Z,96.61
2023-11-30T16:56:06.650Z,96.10
2023-11-30T16:58:33.519Z,95.84
2023-11-30T17:01:00.534Z,96.05
2023-11-30T17:03:27.576Z,96.48
2023-11-30T17:05:54.609Z,96.71
2023-11-30T17:08:21.488Z,96.99
2023-11-30T17:10:48.507Z,97.08
2023-11-30T17:13:15.392Z,96.90
2023-11-30T17:15:42.134Z,97.17
2023-11-30T17:18:09.188Z,96.97
2023-11-30T17:20:36.112Z,96.90
2023-11-30T17:23:04.096Z,96.97
2023-11-30T17:25:30.952Z,96.76
2023-11-30T17:27:59.740Z,96.69
2023-11-30T17:30:26.945Z,97.10
2023-11-30T17:32:54.137Z,96.33
2023-11-30T17:35:21.406Z,96.57
2023-11-30T17:37:48.401Z,96.17
2023-11-30T17:40:15.184Z,96.35
2023-11-30T17:42:42.043Z,96.12
2023-11-30T17:45:10.640Z,96.10
2023-11-30T17:47:37.683Z,96.22
2023-11-30T17:50:05.011Z,96.35
2023-11-30T17:52:31.869Z,96.25
2023-11-30T17:54:58.874Z,96.06
2023-11-30T17:57:25.814Z,95.56
2023-11-30T17:59:54.237Z,95.86
2023-11-30T18:02:25.328Z,96.23
2023-11-30T18:04:53.541Z,95.81
2023-11-30T18:07:20.311Z,95.96
2023-11-30T18:09:47.137Z,96.06
2023-11-30T18:12:15.151Z,96.38
2023-11-30T18:14:42.986Z,96.06
2023-11-30T18:17:12.920Z,96.35
2023-11-30T18:19:41.089Z,95.90
2023-11-30T18:22:07.911Z,95.88
2023-11-30T18:24:34.983Z,95.80
2023-11-30T18:27:03.378Z,95.84
2023-11-30T18:29:31.520Z,96.42
2023-11-30T18:31:58.816Z,96.12
2023-11-30T18:34:25.618Z,95.84
2023-11-30T18:36:53.711Z,95.71
2023-11-30T18:39:20.607Z,96.66
2023-11-30T18:41:47.518Z,96.85
2023-11-30T18:44:14.737Z,96.65
2023-11-30T18:46:41.891Z,96.29
2023-11-30T18:49:08.971Z,96.12
2023-11-30T18:51:36.898Z,96.42
2023-11-30T18:54:03.935Z,97.29
2023-11-30T18:56:30.883Z,97.45
2023-11-30T18:58:58.621Z,97.19
2023-11-30T19:01:26.119Z,97.49
2023-11-30T19:03:53.404Z,97.60
2023-11-30T19:06:21.429Z,97.71
2023-11-30T19:08:49.616Z,97.76
2023-11-30T19:11:17.279Z,96.95
2023-11-30T19:13:44.652Z,97.11
2023-11-30T19:16:23.961Z,97.02
2023-11-30T19:18:51.584Z,96.93
2023-11-30T19:21:18.966Z,96.95
2023-11-30T19:23:48.894Z,96.60
2023-11-30T19:26:15.805Z,96.26
2023-11-30T19:28:42.734Z,96.33
2023-11-30T19:31:09.545Z,97.04
2023-11-30T19:33:36.419Z,96.68
2023-11-30T19:36:03.435Z,96.98
2023-11-30T19:38:30.340Z,97.08
2023-11-30T19:40:57.506Z,96.87
2023-11-30T19:43:25.395Z,97.25
2023-11-30T19:45:54.938Z,97.20
2023-11-30T19:48:22.249Z,96.90
2023-11-30T19:50:49.239Z,97.43
2023-11-30T19:53:16.451Z,97.68
2023-11-30T19:55:45.864Z,98.18
2023-11-30T19:58:13.315Z,98.07
2023-11-30T20:00:41.972Z,98.11
2023-11-30T20:03:09.550Z,98.17
2023-11-30T20:05:38.437Z,98.05
2023-11-30T20:08:05.668Z,97.96
2023-11-30T20:10:32.523Z,97.98
2023-11-30T20:12:59.540Z,98.21
2023-11-30T20:15:28.841Z,98.39
2023-11-30T20:17:55.744Z,98.33
2023-11-30T20:20:22.597Z,98.42
2023-11-30T20:22:49.573Z,98.69
2023-11-30T20:25:17.895Z,98.38
2023-11-30T20:27:44.870Z,98.18
2023-11-30T20:30:12.397Z,98.10
2023-11-30T20:32:39.324Z,97.54
2023-11-30T20:35:06.376Z,97.11
2023-11-30T20:37:33.200Z,97.04
2023-11-30T20:40:00.132Z,97.09
2023-11-30T20:42:27.164Z,96.75
2023-11-30T20:44:53.995Z,97.21
2023-11-30T20:47:21.542Z,96.96
2023-11-30T20:49:48.534Z,96.58
2023-11-30T20:52:15.852Z,96.69
2023-11-30T20:54:43.028Z,96.85
2023-11-30T20:57:10.003Z,97.19
2023-11-30T20:59:38.129Z,97.22
2023-11-30T21:02:06.265Z,97.07
2023-11-30T21:04:33.130Z,97.53
2023-11-30T21:07:00.164Z,97.39
2023-11-30T21:09:27.477Z,97.54
2023-11-30T21:11:55.641Z,97.58
2023-11-30T21:14:23.457Z,97.51
2023-11-30T21:16:50.899Z,97.77
2023-11-30T21:19:17.816Z,97.79
2023-11-30T21:21:46.443Z,97.47
2023-11-30T21:24:14.148Z,97.32
2023-11-30T21:26:40.868Z,97.38
2023-11-30T21:29:07.699Z,97.20
2023-11-30T21:31:34.485Z,97.04
2023-11-30T21:34:01.405Z,96.68
2023-11-30T21:36:28.236Z,96.92
2023-11-30T21:38:55.048Z,96.85
2023-11-30T21:41:21.869Z,96.98
2023-11-30T21:43:48.748Z,96.86
2023-11-30T21:46:15.575Z,96.84
2023-11-30T21:48:42.610Z,97.23
2023-11-30T21:51:09.525Z,97.17
2023-11-30T21:53:36.379Z,97.20
2023-11-30T21:56:03.272Z,97.19
2023-11-30T21:58:30.152Z,96.77
2023-11-30T22:00:57.642Z,96.87
2023-11-30T22:03:24.665Z,96.91
2023-11-30T22:05:51.947Z,96.85
2023-11-30T22:08:18.736Z,96.66
2023-11-30T22:10:45.830Z,96.49
2023-11-30T22:13:13.723Z,96.60
2023-11-30T22:15:40.487Z,96.46
2023-11-30T22:18:07.336Z,96.47
2023-11-30T22:20:35.324Z,96.51
2023-11-30T22:23:02.241Z,96.54
2023-11-30T22:25:29.145Z,96.65
2023-11-30T22:27:56.083Z,96.66
2023-11-30T22:30:22.840Z,97.15
2023-11-30T22:32:49.576Z,96.68
2023-11-30T22:35:16.386Z,97.19
2023-11-30T22:37:43.266Z,96.93
2023-11-30T22:40:10.476Z,96.38
2023-11-30T22:42:37.233Z,96.26
2023-11-30T22:45:05.488Z,96.89
2023-11-30T22:47:32.793Z,96.96
2023-11-30T22:49:59.517Z,96.73
2023-11-30T22:52:26.976Z,96.69
2023-11-30T22:54:54.030Z,96.42
2023-11-30T22:57:20.859Z,96.29
2023-11-30T22:59:47.659Z,96.31
2023-11-30T23:02:14.684Z,96.67
2023-11-30T23:04:41.766Z,96.63
2023-11-30T23:07:08.766Z,96.57
2023-11-30T23:09:35.661Z,96.88
2023-11-30T23:12:02.440Z,96.97
2023-11-30T23:14:29.288Z,97.08
2023-11-30T23:16:56.082Z,97.21
2023-11-30T23:19:22.916Z,97.28
2023-11-30T23:21:49.789Z,97.25
2023-11-30T23:24:25.533Z,97.08
2023-11-30T23:26:55.718Z,97.09
2023-11-30T23:29:23.110Z,97.16
2023-11-30T23:31:50.015Z,97.11
2023-11-30T23:34:16.854Z,97.35
2023-11-30T23:36:43.653Z,97.61
2023-11-30T23:39:10.370Z,97.65
2023-11-30T23:41:37.141Z,97.37
2023-11-30T23:44:04.004Z,97.62
2023-11-30T23:46:31.829Z,97.53
2023-11-30T23:48:59.048Z,98.17
2023-11-30T23:51:25.952Z,97.59
2023-11-30T23:53:52.744Z,97.77
2023-11-30T23:56:19.512Z,98.00
2023-11-30T23:58:46.225Z,98.12
